createdAt,value
2023-01-29T00:01:19.973Z,102656.00
2023-01-29T00:06:23.146Z,102653.16
2023-01-29T00:11:25.482Z,102661.66
2023-01-29T00:16:27.352Z,102644.63
2023-01-29T00:21:30.880Z,102642.06
2023-01-29T00:26:32.716Z,102614.50
2023-01-29T00:31:34.730Z,102617.06
2023-01-29T00:36:36.317Z,102613.69
2023-01-29T00:41:57.144Z,102617.34
2023-01-29T00:46:58.932Z,102623.66
2023-01-29T00:52:19.167Z,102638.97
2023-01-29T00:57:21.002Z,102610.13
2023-01-29T01:02:41.817Z,102623.16
2023-01-29T01:07:48.398Z,102627.81
2023-01-29T01:13:00.566Z,102636.31
2023-01-29T01:18:03.586Z,102622.78
2023-01-29T01:23:05.230Z,102622.13
2023-01-29T01:28:07.255Z,102632.44
2023-01-29T01:33:08.954Z,102621.25
2023-01-29T01:38:11.202Z,102620.47
2023-01-29T01:43:12.782Z,102630.94
2023-01-29T01:48:23.245Z,102631.81
2023-01-29T01:53:39.368Z,102620.22
2023-01-29T01:58:45.362Z,102623.72
2023-01-29T02:04:16.467Z,102619.31
2023-01-29T02:09:34.353Z,102623.59
2023-01-29T02:14:40.678Z,102625.50
2023-01-29T02:19:54.516Z,102640.72
2023-01-29T02:25:09.812Z,102643.91
2023-01-29T02:30:14.293Z,102633.97
2023-01-29T02:35:26.061Z,102639.59
2023-01-29T02:41:00.046Z,102628.41
2023-01-29T02:46:13.956Z,102614.09
2023-01-29T02:51:25.043Z,102613.47
2023-01-29T02:56:37.257Z,102599.16
2023-01-29T03:01:44.837Z,102578.72
2023-01-29T03:06:54.427Z,102567.22
2023-01-29T03:12:19.855Z,102557.19
2023-01-29T03:17:27.445Z,102542.59
2023-01-29T03:22:30.710Z,102530.91
2023-01-29T03:28:02.183Z,102514.25
2023-01-29T03:33:11.430Z,102513.50
2023-01-29T03:38:14.397Z,102513.25
2023-01-29T03:43:34.199Z,102498.66
2023-01-29T03:48:36.403Z,102506.00
2023-01-29T03:53:47.840Z,102514.00
2023-01-29T03:59:01.376Z,102504.97
2023-01-29T04:04:37.822Z,102496.56
2023-01-29T04:09:48.095Z,102493.63
2023-01-29T04:14:53.557Z,102491.78
2023-01-29T04:19:55.721Z,102486.38
2023-01-29T04:25:02.491Z,102496.94
2023-01-29T04:30:13.573Z,102497.97
2023-01-29T04:35:16.812Z,102499.00
2023-01-29T04:40:56.969Z,102493.84
2023-01-29T04:46:19.052Z,102493.84
2023-01-29T04:51:32.726Z,102498.47
2023-01-29T04:56:44.441Z,102508.16
2023-01-29T05:01:47.436Z,102502.47
2023-01-29T05:06:51.041Z,102489.69
2023-01-29T05:11:53.392Z,102478.59
2023-01-29T05:16:57.068Z,102473.56
2023-01-29T05:21:59.443Z,102476.78
2023-01-29T05:27:19.700Z,102478.97
2023-01-29T05:32:21.203Z,102477.81
2023-01-29T05:37:22.969Z,102476.78
2023-01-29T05:42:24.543Z,102459.59
2023-01-29T05:47:26.045Z,102457.47
2023-01-29T05:52:27.574Z,102449.19
2023-01-29T05:57:29.113Z,102453.34
2023-01-29T06:02:31.407Z,102458.50
2023-01-29T06:07:32.983Z,102451.41
2023-01-29T06:12:34.471Z,102447.41
2023-01-29T06:17:36.008Z,102434.63
2023-01-29T06:22:37.581Z,102443.91
2023-01-29T06:27:39.093Z,102425.97
2023-01-29T06:32:40.659Z,102431.38
2023-01-29T06:37:42.292Z,102433.31
2023-01-29T06:42:46.052Z,102417.06
2023-01-29T06:47:47.721Z,102418.75
2023-01-29T06:52:49.242Z,102420.53
2023-01-29T06:57:50.988Z,102411.78
2023-01-29T07:03:05.869Z,102428.78
2023-01-29T07:08:08.763Z,102416.00
2023-01-29T07:13:10.357Z,102398.88
2023-01-29T07:18:12.580Z,102399.88
2023-01-29T07:23:15.305Z,102385.19
2023-01-29T07:28:23.281Z,102388.78
2023-01-29T07:33:25.657Z,102401.03
2023-01-29T07:38:27.332Z,102392.38
2023-01-29T07:43:30.206Z,102385.00
2023-01-29T07:48:31.892Z,102384.59
2023-01-29T07:53:33.511Z,102376.22
2023-01-29T07:58:36.747Z,102378.03
2023-01-29T08:03:38.634Z,102373.09
2023-01-29T08:08:40.122Z,102363.91
2023-01-29T08:13:41.692Z,102363.72
2023-01-29T08:18:47.798Z,102365.34
2023-01-29T08:23:49.415Z,102363.22
2023-01-29T08:28:50.896Z,102353.13
2023-01-29T08:33:54.546Z,102355.19
2023-01-29T08:38:56.097Z,102361.06
2023-01-29T08:43:57.963Z,102366.56
2023-01-29T08:48:59.507Z,102370.31
2023-01-29T08:54:01.025Z,102363.03
2023-01-29T08:59:02.514Z,102367.97
2023-01-29T09:04:04.015Z,102361.53
2023-01-29T09:09:05.538Z,102348.59
2023-01-29T09:14:07.339Z,102339.84
2023-01-29T09:19:08.870Z,102346.81
2023-01-29T09:24:10.794Z,102326.16
2023-01-29T09:29:12.369Z,102321.00
2023-01-29T09:34:14.140Z,102325.72
2023-01-29T09:39:15.754Z,102320.09
2023-01-29T09:44:28.497Z,102315.16
2023-01-29T09:49:37.720Z,102307.22
2023-01-29T09:55:22.524Z,102299.03
2023-01-29T10:00:32.930Z,102285.69
2023-01-29T10:05:55.959Z,102283.66
2023-01-29T10:11:16.132Z,102273.66
2023-01-29T10:16:26.991Z,102263.63
2023-01-29T10:21:35.400Z,102250.47
2023-01-29T10:26:38.025Z,102258.78
2023-01-29T10:31:40.326Z,102264.84
2023-01-29T10:36:45.599Z,102262.78
2023-01-29T10:41:54.077Z,102255.00
2023-01-29T10:47:17.061Z,102254.69
2023-01-29T10:52:50.768Z,102249.06
2023-01-29T10:58:22.687Z,102241.41
2023-01-29T11:03:29.949Z,102230.16
2023-01-29T11:08:42.380Z,102218.78
2023-01-29T11:13:48.535Z,102195.91
2023-01-29T11:18:55.161Z,102202.84
2023-01-29T11:24:16.990Z,102193.38
2023-01-29T11:29:33.635Z,102188.31
2023-01-29T11:34:35.201Z,102184.50
2023-01-29T11:39:44.404Z,102171.56
2023-01-29T11:44:46.451Z,102165.47
2023-01-29T11:49:53.877Z,102154.22
2023-01-29T11:55:03.802Z,102148.16
2023-01-29T12:00:18.169Z,102147.25
2023-01-29T12:05:23.742Z,102128.34
2023-01-29T12:10:37.219Z,102131.81
2023-01-29T12:15:40.952Z,102131.81
2023-01-29T12:20:56.038Z,102114.63
2023-01-29T12:26:09.624Z,102110.31
2023-01-29T12:31:20.250Z,102103.34
2023-01-29T12:36:28.009Z,102086.72
2023-01-29T12:41:47.842Z,102090.53
2023-01-29T12:46:54.870Z,102066.00
2023-01-29T12:52:23.204Z,102059.47
2023-01-29T12:57:34.743Z,102052.28
2023-01-29T13:02:55.486Z,102035.63
2023-01-29T13:08:04.237Z,102024.19
2023-01-29T13:13:15.876Z,102016.38
2023-01-29T13:18:32.236Z,102010.81
2023-01-29T13:23:46.895Z,101994.66
2023-01-29T13:28:49.706Z,102002.53
2023-01-29T13:34:25.524Z,101986.78
2023-01-29T13:39:32.809Z,101980.69
2023-01-29T13:44:39.790Z,101973.16
2023-01-29T13:49:53.550Z,101963.03
2023-01-29T13:55:00.248Z,101955.28
2023-01-29T14:00:01.813Z,101957.34
2023-01-29T14:05:31.494Z,101953.69
2023-01-29T14:10:35.214Z,101944.00
2023-01-29T14:15:38.181Z,101940.44
2023-01-29T14:21:01.580Z,101942.53
2023-01-29T14:26:06.266Z,101929.41
2023-01-29T14:31:08.356Z,101922.41
2023-01-29T14:36:14.359Z,101918.31
2023-01-29T14:41:22.079Z,101913.03
2023-01-29T14:46:35.664Z,101904.09
2023-01-29T14:51:41.670Z,101900.28
2023-01-29T14:56:49.754Z,101888.22
2023-01-29T15:01:58.026Z,101878.94
2023-01-29T15:07:01.433Z,101881.31
2023-01-29T15:12:14.282Z,101868.41
2023-01-29T15:17:25.063Z,101856.41
2023-01-29T15:22:28.955Z,101873.75
2023-01-29T15:27:30.934Z,101847.69
2023-01-29T15:32:35.902Z,101854.66
2023-01-29T15:37:37.856Z,101841.53
2023-01-29T15:42:48.469Z,101826.91
2023-01-29T15:47:50.890Z,101815.84
2023-01-29T15:52:54.451Z,101820.59
2023-01-29T15:57:57.429Z,101803.72
2023-01-29T16:03:01.406Z,101809.44
2023-01-29T16:08:04.040Z,101800.00
2023-01-29T16:13:05.655Z,101806.66
2023-01-29T16:18:35.949Z,101804.66
2023-01-29T16:23:48.596Z,101804.59
2023-01-29T16:28:50.992Z,101805.75
2023-01-29T16:33:54.593Z,101805.44
2023-01-29T16:39:02.215Z,101801.75
2023-01-29T16:44:37.965Z,101796.38
2023-01-29T16:49:39.402Z,101784.84
2023-01-29T16:54:44.102Z,101767.22
2023-01-29T16:59:46.832Z,101765.31
2023-01-29T17:04:48.803Z,101760.72
2023-01-29T17:09:54.191Z,101756.59
2023-01-29T17:15:30.688Z,101744.78
2023-01-29T17:20:32.440Z,101742.09
2023-01-29T17:25:33.967Z,101733.78
2023-01-29T17:30:37.242Z,101725.03
2023-01-29T17:35:39.301Z,101709.75
2023-01-29T17:40:53.464Z,101709.06
2023-01-29T17:45:55.006Z,101696.16
2023-01-29T17:51:00.406Z,101684.94
2023-01-29T17:56:02.467Z,101653.56
2023-01-29T18:01:04.134Z,101646.00
2023-01-29T18:06:10.129Z,101650.19
2023-01-29T18:11:12.984Z,101636.47
2023-01-29T18:16:15.742Z,101631.19
2023-01-29T18:21:17.868Z,101627.84
2023-01-29T18:26:19.503Z,101615.72
2023-01-29T18:31:24.081Z,101616.84
2023-01-29T18:36:25.610Z,101598.97
2023-01-29T18:41:27.185Z,101578.53
2023-01-29T18:46:28.823Z,101584.88
2023-01-29T18:51:30.683Z,101576.53
2023-01-29T18:56:32.394Z,101559.34
2023-01-29T19:01:33.941Z,101548.44
2023-01-29T19:06:37.147Z,101532.25
2023-01-29T19:11:39.558Z,101526.28
2023-01-29T19:16:42.583Z,101521.13
2023-01-29T19:21:44.293Z,101544.66
2023-01-29T19:26:45.899Z,101520.72
2023-01-29T19:31:47.844Z,101524.09
2023-01-29T19:36:49.424Z,101499.56
2023-01-29T19:41:50.962Z,101505.50
2023-01-29T19:46:52.713Z,101492.59
2023-01-29T19:51:56.311Z,101492.09
2023-01-29T19:56:58.185Z,101481.28
2023-01-29T20:02:00.043Z,101491.28
2023-01-29T20:07:01.810Z,101483.75
2023-01-29T20:12:04.333Z,101473.69
2023-01-29T20:17:07.809Z,101468.19
2023-01-29T20:22:09.780Z,101476.94
2023-01-29T20:27:12.269Z,101455.03
2023-01-29T20:32:14.530Z,101453.44
2023-01-29T20:37:16.050Z,101438.91
2023-01-29T20:42:18.061Z,101446.94
2023-01-29T20:47:19.719Z,101438.47
2023-01-29T20:52:21.630Z,101424.94
2023-01-29T20:57:24.160Z,101430.13
2023-01-29T21:02:28.938Z,101424.03
2023-01-29T21:07:30.438Z,101411.19
2023-01-29T21:12:31.953Z,101409.63
2023-01-29T21:17:34.131Z,101412.28
2023-01-29T21:22:37.093Z,101393.19
2023-01-29T21:27:38.736Z,101382.94
2023-01-29T21:32:40.227Z,101368.78
2023-01-29T21:37:42.029Z,101365.94
2023-01-29T21:43:02.027Z,101378.84
2023-01-29T21:48:05.348Z,101359.56
2023-01-29T21:53:07.627Z,101379.28
2023-01-29T21:58:11.488Z,101370.56
2023-01-29T22:03:14.900Z,101336.69
2023-01-29T22:08:18.767Z,101313.34
2023-01-29T22:13:21.874Z,101306.00
2023-01-29T22:18:24.034Z,101290.59
2023-01-29T22:23:25.526Z,101282.84
2023-01-29T22:28:27.016Z,101264.06
2023-01-29T22:33:28.633Z,101256.41
2023-01-29T22:38:30.972Z,101255.66
2023-01-29T22:43:33.499Z,101246.31
2023-01-29T22:48:35.557Z,101228.41
2023-01-29T22:53:51.494Z,101213.88
2023-01-29T22:58:55.624Z,101199.31
2023-01-29T23:03:57.461Z,101179.81
2023-01-29T23:08:58.958Z,101140.44
2023-01-29T23:14:00.459Z,101126.03
2023-01-29T23:19:01.942Z,101129.97
2023-01-29T23:24:03.912Z,101142.38
2023-01-29T23:29:05.765Z,101156.31
2023-01-29T23:34:07.322Z,101171.16
2023-01-29T23:39:09.048Z,101162.94
2023-01-29T23:44:10.600Z,101149.63
2023-01-29T23:49:12.131Z,101125.72
2023-01-29T23:54:14.164Z,101096.84
2023-01-29T23:59:16.268Z,101104.63
